KDAB/DAB METAR and TAF weather

Enter ICAO airport designator
Station Type Date Time Source
KDAB METAR 2021/09/23 18:53 UTC NOAA

KDAB 231853Z 06011G18KT 10SM FEW029 SCT044 SCT250 29/22 A2990 RMK AO2 SLP125 CB DSNT E-SE T02890217


Station Type Date Time Source
KDAB Decoded METAR 2021/09/23 18:53 UTC NOAA

DAYTONA BEACH INTERNATIONAL, FL, United States (KDAB) 29-10N 81-04W 9M
Sep 23, 2021 - 02:53 PM EDT / 2021.09.23 1853 UTC
Wind: from the ENE (060 degrees) at 13 MPH (11 KT) gusting to 21 MPH (18 KT):0
Visibility: 10 mile(s):0
Sky conditions: partly cloudy
Weather: Cumulonimbus clouds observed
Temperature: 84.0 F (28.9 C)
Dew Point: 71.1 F (21.7 C)
Relative Humidity: 65%
Pressure (altimeter): 29.9 in. Hg (1012 hPa)
ob: KDAB 231853Z 06011G18KT 10SM FEW029 SCT044 SCT250 29/22 A2990 RMK AO2 SLP125 CB DSNT E-SE T02890217
cycle: 19

Station Type Date Time Source
KDAB TAF 2021/09/23 18:26 UTC NOAA

TAF KDAB 231721Z 2318/2418 03011KT P6SM SCT030 SCT045
FM240000 02005KT P6SM FEW050
FM241500 04009KT P6SM SCT045

Example: see airport list